Villa Krause, Argentina
Current Conditions -  °F | °C
As of 6:00 PM on Friday 31 Oct 2014 (Local Time) from SAME Reporting Station
Clear Clear  
Wind Chill: 68°   Ceiling: Unl
Heat Index: 68°   Visibility: 6mi
Dew Point: 27°   Wind: 7mph
Humidity: 21%   Direction: 50°NE
Pressure: 29.97"   Gusts: NA
Location:  31.57°S, 68.53°W
Report Text: SAME 312100Z 05006KT CAVOK 20/M03 Q1015
Loading
Personal Weather Stations






























Interactive Weather Map
Tropical Storm Tracking
New forecast layout! Learn more

10-Day Weather Forecast

Advertisements
Track Severe Weather on mobile